Time;durP1;ratioP1;P1;durP2;ratioP2;P2;SDS_P1;SDS_P2;PMS_P1;PMS_P2;Temp;Humidity;BMP_temperature;BMP_pressure;BME280_temperature;BME280_humidity;BME280_pressure;Samples;Min_cycle;Max_cycle;Signal;HPM_P1;HPM_P2
2022/08/15 00:00:29;;;;;;;2.90;1.92;;;28.90;62.10;;;;;;5114717;27;20664;-49
2022/08/15 00:03:04;;;;;;;3.20;1.80;;;28.90;62.50;;;;;;5125042;27;20213;-50
2022/08/15 00:05:38;;;;;;;2.47;1.75;;;28.90;62.40;;;;;;5126689;27;20209;-50
2022/08/15 00:08:08;;;;;;;6.25;1.85;;;28.80;62.50;;;;;;5108215;27;20213;-50
2022/08/15 00:11:37;;;;;;;4.28;1.85;;;28.80;62.60;;;;;;5121403;27;20240;-50
2022/08/15 00:14:10;;;;;;;4.80;1.70;;;28.80;63.10;;;;;;5123962;27;20206;-49
2022/08/15 00:17:01;;;;;;;4.05;1.75;;;28.80;62.80;;;;;;5111473;27;20658;-48
2022/08/15 00:19:40;;;;;;;2.92;1.90;;;28.70;62.50;;;;;;5108240;27;20494;-50
2022/08/15 00:22:09;;;;;;;4.80;1.88;;;28.70;62.70;;;;;;5109957;27;20206;-49
2022/08/15 00:24:49;;;;;;;3.75;2.03;;;28.70;62.60;;;;;;5117376;27;20201;-49
2022/08/15 00:27:20;;;;;;;3.53;1.85;;;28.70;62.70;;;;;;5126142;27;20201;-49
2022/08/15 00:29:53;;;;;;;4.65;1.77;;;28.60;62.80;;;;;;5126582;27;20228;-50
2022/08/15 00:32:24;;;;;;;3.13;1.73;;;28.60;62.80;;;;;;5095659;28;20325;-50
2022/08/15 00:38:11;;;;;;;4.07;1.70;;;28.50;62.80;;;;;;5122427;28;20189;-51
2022/08/15 00:43:45;;;;;;;3.22;2.00;;;28.50;63.00;;;;;;5110777;28;20197;-40
2022/08/15 00:46:17;;;;;;;2.33;1.58;;;28.40;63.00;;;;;;5119393;28;20296;-41
2022/08/15 00:48:50;;;;;;;3.78;1.90;;;28.40;63.10;;;;;;5108398;28;20305;-41
2022/08/15 00:51:54;;;;;;;4.22;1.67;;;28.40;63.10;;;;;;5126416;28;20220;-40
2022/08/15 00:54:30;;;;;;;6.95;2.20;;;28.30;63.50;;;;;;5107680;28;20297;-40
2022/08/15 00:57:22;;;;;;;2.75;1.80;;;28.30;63.30;;;;;;5100328;28;20195;-38
2022/08/15 01:00:24;;;;;;;3.10;1.90;;;28.30;63.50;;;;;;5113665;28;20198;-39
2022/08/15 01:03:11;;;;;;;5.07;1.90;;;28.30;63.60;;;;;;5110813;28;20217;-39
2022/08/15 01:05:49;;;;;;;3.63;1.85;;;28.20;63.70;;;;;;5112939;28;20629;-51
2022/08/15 01:08:23;;;;;;;3.25;1.90;;;28.20;64.00;;;;;;5122547;28;20197;-50
2022/08/15 01:11:25;;;;;;;3.60;1.77;;;28.20;63.90;;;;;;5119963;27;20570;-50
2022/08/15 01:14:01;;;;;;;4.10;1.75;;;28.20;64.20;;;;;;5109839;28;20267;-50
2022/08/15 01:16:49;;;;;;;2.30;1.65;;;28.10;64.00;;;;;;5121700;27;20208;-50
2022/08/15 01:19:29;;;;;;;2.30;1.60;;;28.10;64.10;;;;;;5119831;27;20206;-51
2022/08/15 01:22:08;;;;;;;2.42;1.50;;;28.10;64.30;;;;;;5097968;28;20210;-50
2022/08/15 01:25:03;;;;;;;2.85;1.60;;;28.10;64.30;;;;;;5111344;27;20304;-51
2022/08/15 01:28:11;;;;;;;2.40;1.90;;;28.00;64.70;;;;;;5123386;27;20201;-52
2022/08/15 01:30:49;;;;;;;5.72;1.70;;;28.00;64.50;;;;;;5128638;27;20308;-51
2022/08/15 01:33:32;;;;;;;3.40;1.88;;;28.00;64.60;;;;;;5110383;27;20225;-50
2022/08/15 01:36:05;;;;;;;2.00;1.60;;;28.00;64.70;;;;;;5119795;27;20204;-50
2022/08/15 01:39:14;;;;;;;3.67;1.98;;;27.90;64.70;;;;;;5117936;27;20292;-50
2022/08/15 01:41:56;;;;;;;3.03;1.80;;;27.90;65.80;;;;;;5119560;27;20202;-48
2022/08/15 01:44:30;;;;;;;2.03;1.70;;;27.80;64.90;;;;;;5123475;27;20223;-49
2022/08/15 01:47:23;;;;;;;2.17;1.85;;;27.80;64.90;;;;;;5098493;27;20198;-49
2022/08/15 01:50:03;;;;;;;2.60;1.85;;;27.80;65.10;;;;;;5120457;27;20266;-50
2022/08/15 01:52:48;;;;;;;4.40;2.00;;;27.80;65.30;;;;;;5128393;27;20210;-48
2022/08/15 01:55:46;;;;;;;4.07;1.85;;;27.70;65.50;;;;;;5129081;27;20198;-38
2022/08/15 01:58:22;;;;;;;2.55;1.67;;;27.70;65.90;;;;;;5119138;27;20236;-49
2022/08/15 02:00:54;;;;;;;3.33;1.85;;;27.60;65.40;;;;;;5109011;27;20193;-51
2022/08/15 02:03:33;;;;;;;2.97;1.95;;;27.60;65.50;;;;;;5123049;27;20208;-49
2022/08/15 02:06:24;;;;;;;2.42;1.40;;;27.60;65.60;;;;;;5128862;27;20209;-38
2022/08/15 02:09:06;;;;;;;3.70;2.28;;;27.50;65.80;;;;;;5122152;27;20214;-38
2022/08/15 02:11:55;;;;;;;2.72;1.98;;;27.50;65.70;;;;;;5123677;27;20194;-41
2022/08/15 02:14:33;;;;;;;5.25;1.90;;;27.40;65.70;;;;;;5115983;27;20309;-38
2022/08/15 02:17:06;;;;;;;2.28;1.70;;;27.40;65.70;;;;;;5128216;27;20194;-39
2022/08/15 02:19:34;;;;;;;2.58;1.67;;;27.40;66.00;;;;;;5119834;27;20198;-38
2022/08/15 02:22:20;;;;;;;2.70;1.75;;;27.30;65.90;;;;;;5113734;27;20654;-39
2022/08/15 02:24:58;;;;;;;2.75;1.77;;;27.30;65.90;;;;;;5123103;27;20204;-40
2022/08/15 02:27:29;;;;;;;4.18;1.92;;;27.30;66.20;;;;;;5128582;27;20606;-40
2022/08/15 02:30:04;;;;;;;2.70;1.70;;;27.30;66.20;;;;;;5115928;27;20203;-39
2022/08/15 02:32:38;;;;;;;2.20;1.48;;;27.20;66.30;;;;;;5113904;27;20249;-38
2022/08/15 02:35:12;;;;;;;3.08;2.00;;;27.20;66.30;;;;;;5127122;27;20679;-38
2022/08/15 02:37:43;;;;;;;2.75;1.80;;;27.20;66.40;;;;;;5120626;27;20205;-38
2022/08/15 02:40:26;;;;;;;2.17;1.90;;;27.20;66.30;;;;;;5099507;28;20202;-51
2022/08/15 02:43:14;;;;;;;2.60;1.70;;;27.20;67.00;;;;;;5110646;27;20211;-49
2022/08/15 02:45:48;;;;;;;3.17;1.83;;;27.10;66.70;;;;;;5126782;27;20258;-53
2022/08/15 02:48:39;;;;;;;3.70;1.85;;;27.10;66.70;;;;;;5119676;27;20241;-39
2022/08/15 02:51:10;;;;;;;2.72;1.80;;;27.10;66.90;;;;;;5096989;28;20743;-39
2022/08/15 02:53:45;;;;;;;1.92;1.70;;;27.00;66.90;;;;;;5116294;27;20298;-40
2022/08/15 02:56:16;;;;;;;3.38;1.80;;;27.00;67.10;;;;;;5120214;27;20202;-40
2022/08/15 02:58:45;;;;;;;2.25;1.67;;;27.00;67.10;;;;;;5109343;27;20656;-40
2022/08/15 03:01:13;;;;;;;3.63;1.85;;;27.00;67.20;;;;;;5129247;27;20660;-38
2022/08/15 03:03:46;;;;;;;4.78;1.90;;;26.90;67.20;;;;;;5114881;27;20534;-39
2022/08/15 03:06:20;;;;;;;2.08;1.60;;;26.90;67.50;;;;;;5114217;27;20238;-39
2022/08/15 03:09:04;;;;;;;2.42;1.80;;;26.90;67.30;;;;;;5124232;27;20233;-39
2022/08/15 03:11:32;;;;;;;3.58;1.80;;;26.90;67.70;;;;;;5102251;27;20193;-53
2022/08/15 03:14:21;;;;;;;2.75;1.88;;;26.90;67.60;;;;;;5109994;27;20308;-50
2022/08/15 03:17:01;;;;;;;3.38;1.83;;;26.80;67.60;;;;;;5128626;27;20205;-52
2022/08/15 03:19:35;;;;;;;2.28;2.08;;;26.80;67.50;;;;;;5127435;27;20727;-39
2022/08/15 03:22:08;;;;;;;4.13;1.67;;;26.80;67.60;;;;;;5093855;27;20674;-39
2022/08/15 03:24:36;;;;;;;2.38;1.70;;;26.80;67.70;;;;;;5127228;27;20944;-39
2022/08/15 03:27:03;;;;;;;2.28;1.55;;;26.80;67.90;;;;;;5108582;27;20202;-39
2022/08/15 03:29:31;;;;;;;2.00;1.70;;;26.80;68.00;;;;;;5114539;27;20834;-39
2022/08/15 03:32:10;;;;;;;4.03;2.03;;;26.70;68.00;;;;;;5125971;27;20585;-39
2022/08/15 03:35:01;;;;;;;2.80;1.80;;;26.70;68.40;;;;;;5129010;27;20619;-39
2022/08/15 03:37:29;;;;;;;2.58;2.00;;;26.70;68.30;;;;;;5114677;27;20194;-39
2022/08/15 03:40:10;;;;;;;3.63;1.70;;;26.70;68.40;;;;;;5125743;27;20205;-38
2022/08/15 03:42:38;;;;;;;3.42;1.70;;;26.70;68.40;;;;;;5108287;27;20217;-39
2022/08/15 03:45:09;;;;;;;1.98;1.88;;;26.70;68.80;;;;;;5125977;27;20197;-39
2022/08/15 03:47:39;;;;;;;4.40;2.28;;;26.70;68.90;;;;;;5112639;27;20645;-38
2022/08/15 03:50:10;;;;;;;3.88;1.70;;;26.70;68.70;;;;;;5121799;27;20211;-39
2022/08/15 03:53:00;;;;;;;2.80;2.03;;;26.70;68.80;;;;;;5112637;27;20225;-39
2022/08/15 03:55:31;;;;;;;2.03;1.70;;;26.60;69.00;;;;;;5126498;27;20205;-39
2022/08/15 03:58:04;;;;;;;5.53;2.13;;;26.60;69.00;;;;;;5105989;27;20264;-39
2022/08/15 04:00:36;;;;;;;2.33;1.83;;;26.60;69.20;;;;;;5123715;27;20249;-40
2022/08/15 04:03:04;;;;;;;4.05;2.05;;;26.60;69.20;;;;;;5114047;27;20201;-41
2022/08/15 04:05:36;;;;;;;3.45;2.17;;;26.60;69.30;;;;;;5095063;28;20206;-39
2022/08/15 04:08:08;;;;;;;4.20;2.30;;;26.60;69.90;;;;;;5094108;28;20772;-39
2022/08/15 04:11:01;;;;;;;2.70;2.00;;;26.60;69.50;;;;;;5118824;27;20201;-39
2022/08/15 04:13:32;;;;;;;5.47;2.05;;;26.60;69.50;;;;;;5125090;27;20227;-39
2022/08/15 04:16:03;;;;;;;2.60;1.85;;;26.60;69.60;;;;;;5092559;28;20229;-39
2022/08/15 04:18:53;;;;;;;2.55;1.80;;;26.60;69.70;;;;;;5113798;27;20679;-51
2022/08/15 04:21:25;;;;;;;2.60;2.20;;;26.60;69.90;;;;;;5122019;27;20201;-52
2022/08/15 04:23:55;;;;;;;2.33;2.13;;;26.60;70.00;;;;;;5112981;27;20638;-52
2022/08/15 04:26:23;;;;;;;3.17;2.10;;;26.60;70.10;;;;;;5105733;27;20245;-54
2022/08/15 04:28:54;;;;;;;3.60;2.00;;;26.60;70.30;;;;;;5118067;27;20198;-51
2022/08/15 04:31:25;;;;;;;2.25;1.85;;;26.60;70.60;;;;;;5126316;28;20356;-51
2022/08/15 04:34:00;;;;;;;3.53;2.40;;;26.60;70.60;;;;;;5103077;28;20273;-56
2022/08/15 04:36:50;;;;;;;4.05;2.00;;;26.60;70.70;;;;;;5112263;28;20225;-54
2022/08/15 04:39:21;;;;;;;2.78;2.08;;;26.50;70.90;;;;;;5101093;28;20200;-51
2022/08/15 04:41:48;;;;;;;4.82;2.30;;;26.50;71.90;;;;;;5114306;27;20202;-54
2022/08/15 04:44:17;;;;;;;6.93;3.65;;;26.50;71.70;;;;;;5138999;27;20205;-55
2022/08/15 04:46:47;;;;;;;2.45;2.08;;;26.50;71.30;;;;;;5119616;28;20214;-54
2022/08/15 04:49:15;;;;;;;3.22;2.22;;;26.50;71.30;;;;;;5107384;28;20208;-50
2022/08/15 04:51:46;;;;;;;4.95;2.20;;;26.50;71.50;;;;;;5125175;27;20631;-54
2022/08/15 04:54:13;;;;;;;3.42;2.35;;;26.50;71.70;;;;;;5112026;27;20230;-49
2022/08/15 04:56:44;;;;;;;3.95;2.30;;;26.50;71.50;;;;;;5111483;27;20255;-39
2022/08/15 04:59:21;;;;;;;3.47;2.13;;;26.50;71.70;;;;;;5097916;28;20600;-39
2022/08/15 05:02:10;;;;;;;2.75;2.35;;;26.50;72.10;;;;;;5108687;27;20956;-38
2022/08/15 05:04:58;;;;;;;4.40;2.17;;;26.50;72.10;;;;;;5131363;27;20213;-38
2022/08/15 05:07:26;;;;;;;4.47;2.70;;;26.40;72.10;;;;;;5119671;27;20618;-50
2022/08/15 05:09:58;;;;;;;6.63;2.45;;;26.40;72.20;;;;;;5115271;27;20213;-51
2022/08/15 05:12:38;;;;;;;3.08;2.33;;;26.40;72.50;;;;;;5116979;27;20241;-52
2022/08/15 05:15:10;;;;;;;2.85;2.42;;;26.40;72.50;;;;;;5124607;27;20253;-50
2022/08/15 05:17:38;;;;;;;2.95;2.00;;;26.40;72.60;;;;;;5114186;27;20229;-52
2022/08/15 05:20:24;;;;;;;2.88;2.47;;;26.40;72.60;;;;;;5117834;27;20586;-52
2022/08/15 05:23:04;;;;;;;3.33;2.42;;;26.40;72.80;;;;;;5111450;27;20225;-52
2022/08/15 05:25:38;;;;;;;3.78;2.47;;;26.40;73.30;;;;;;5118060;27;20252;-51
2022/08/15 05:28:09;;;;;;;5.30;2.45;;;26.40;73.20;;;;;;5124450;27;20739;-52
2022/08/15 05:30:58;;;;;;;3.58;2.30;;;26.40;73.10;;;;;;5106001;27;20222;-51
2022/08/15 05:33:45;;;;;;;2.92;2.40;;;26.40;73.30;;;;;;5117078;27;20218;-51
2022/08/15 05:36:24;;;;;;;4.18;2.33;;;26.40;73.30;;;;;;5131346;27;20292;-51
2022/08/15 05:39:00;;;;;;;6.85;2.80;;;26.40;73.40;;;;;;5129378;27;20213;-50
2022/08/15 05:41:44;;;;;;;2.78;2.40;;;26.40;73.50;;;;;;5128059;27;20650;-51
2022/08/15 05:44:29;;;;;;;3.35;2.28;;;26.40;74.30;;;;;;5130048;27;20267;-49
2022/08/15 05:47:35;;;;;;;3.13;2.42;;;26.40;73.90;;;;;;5111057;27;20222;-49
2022/08/15 05:50:31;;;;;;;4.97;2.60;;;26.40;74.40;;;;;;5133490;27;20754;-48
2022/08/15 05:53:24;;;;;;;3.28;2.65;;;26.40;74.70;;;;;;5101335;27;20202;-38
2022/08/15 05:55:54;;;;;;;4.30;2.67;;;26.40;74.80;;;;;;5111815;27;20236;-39
2022/08/15 05:58:48;;;;;;;3.60;2.47;;;26.50;74.90;;;;;;5123687;27;20290;-38
2022/08/15 06:01:45;;;;;;;3.08;2.25;;;26.50;74.70;;;;;;5126109;27;20194;-39
2022/08/15 06:04:42;;;;;;;4.20;2.72;;;26.50;74.40;;;;;;5122211;27;20262;-51
2022/08/15 06:07:15;;;;;;;3.42;2.47;;;26.50;75.10;;;;;;5128062;27;20200;-53
2022/08/15 06:09:50;;;;;;;3.70;2.55;;;26.50;75.00;;;;;;5119720;27;20202;-52
2022/08/15 06:12:26;;;;;;;3.72;2.67;;;26.50;74.80;;;;;;5112589;27;20201;-54
2022/08/15 06:14:59;;;;;;;4.13;2.40;;;26.60;74.80;;;;;;5098831;28;20221;-40
2022/08/15 06:17:43;;;;;;;4.63;2.35;;;26.60;75.00;;;;;;5124270;27;20532;-40
2022/08/15 06:20:25;;;;;;;3.78;2.60;;;26.60;75.60;;;;;;5112669;27;20207;-40
2022/08/15 06:23:19;;;;;;;2.95;2.67;;;26.60;75.70;;;;;;5121917;27;20596;-40
2022/08/15 06:26:07;;;;;;;4.45;2.30;;;26.60;75.60;;;;;;5119316;27;20690;-40
2022/08/15 06:29:22;;;;;;;3.65;2.42;;;26.60;75.30;;;;;;5125470;27;20200;-40
2022/08/15 06:32:01;;;;;;;3.58;2.47;;;26.60;75.80;;;;;;5109612;28;20551;-40
2022/08/15 06:34:51;;;;;;;4.22;2.58;;;26.60;75.80;;;;;;5111338;27;20538;-40
2022/08/15 06:37:44;;;;;;;4.40;2.42;;;26.60;75.50;;;;;;5111537;27;20249;-40
2022/08/15 06:40:50;;;;;;;3.00;2.50;;;26.60;75.90;;;;;;5109078;27;20368;-39
2022/08/15 06:43:23;;;;;;;4.13;2.63;;;26.60;75.90;;;;;;5129000;27;20636;-40
2022/08/15 06:45:59;;;;;;;3.58;2.95;;;26.60;75.90;;;;;;5111875;27;20212;-40
2022/08/15 06:48:33;;;;;;;2.53;2.33;;;26.60;76.40;;;;;;5094425;28;20217;-39
2022/08/15 06:51:24;;;;;;;4.10;2.67;;;26.60;76.70;;;;;;5122966;27;20263;-40
2022/08/15 06:54:29;;;;;;;3.80;2.42;;;26.70;77.40;;;;;;5107278;27;20213;-40
2022/08/15 06:57:33;;;;;;;2.40;2.20;;;26.70;76.30;;;;;;5108291;28;20216;-40
2022/08/15 07:00:08;;;;;;;4.93;2.55;;;26.70;77.10;;;;;;5114111;27;20205;-39
2022/08/15 07:03:05;;;;;;;3.92;2.67;;;26.70;76.30;;;;;;5104595;27;20284;-40
2022/08/15 07:05:54;;;;;;;5.03;3.10;;;26.70;76.80;;;;;;5122344;27;20312;-40
2022/08/15 07:08:40;;;;;;;5.65;3.03;;;26.80;77.50;;;;;;5113893;27;20202;-39
2022/08/15 07:11:14;;;;;;;6.47;2.45;;;26.70;77.10;;;;;;5119779;27;20251;-41
2022/08/15 07:14:10;;;;;;;4.97;3.00;;;26.80;76.80;;;;;;5103369;27;20237;-41
2022/08/15 07:17:03;;;;;;;4.20;2.72;;;26.80;77.80;;;;;;5113822;27;20193;-40
2022/08/15 07:19:34;;;;;;;3.25;2.70;;;26.80;77.60;;;;;;5120598;27;20204;-41
2022/08/15 07:22:02;;;;;;;4.88;2.80;;;26.80;77.00;;;;;;5102797;27;20206;-41
2022/08/15 07:24:33;;;;;;;4.28;2.20;;;26.80;78.10;;;;;;5124274;27;20257;-40
2022/08/15 07:27:17;;;;;;;4.57;2.83;;;26.90;77.60;;;;;;5116568;27;20193;-40
2022/08/15 07:29:47;;;;;;;3.58;3.28;;;26.80;77.60;;;;;;5106376;27;20214;-40
2022/08/15 07:32:28;;;;;;;5.28;3.10;;;26.80;78.10;;;;;;5097312;27;20213;-40
2022/08/15 07:35:16;;;;;;;3.45;2.88;;;26.80;78.10;;;;;;5122665;27;20217;-40
2022/08/15 07:37:46;;;;;;;3.22;2.90;;;26.90;77.80;;;;;;5105806;27;20197;-41
2022/08/15 07:40:14;;;;;;;4.40;3.10;;;26.80;78.00;;;;;;5124097;27;20210;-40
2022/08/15 07:42:44;;;;;;;4.25;2.30;;;26.80;77.70;;;;;;5125135;27;20224;-40
2022/08/15 07:45:36;;;;;;;6.18;3.10;;;26.80;77.70;;;;;;5120803;27;20781;-40
2022/08/15 07:48:19;;;;;;;3.38;2.83;;;26.90;78.10;;;;;;5115919;27;20246;-40
2022/08/15 07:51:20;;;;;;;5.70;2.60;;;26.80;78.30;;;;;;5115570;27;20214;-40
2022/08/15 07:54:03;;;;;;;4.13;2.90;;;26.90;77.80;;;;;;5091237;27;20226;-40
2022/08/15 07:56:36;;;;;;;4.22;2.67;;;26.90;77.70;;;;;;5121224;27;20679;-40
2022/08/15 07:59:28;;;;;;;4.40;2.97;;;26.90;77.70;;;;;;5117823;27;20221;-40
2022/08/15 08:02:22;;;;;;;3.35;2.97;;;26.90;78.30;;;;;;5101039;27;20194;-40
2022/08/15 08:05:07;;;;;;;3.92;2.53;;;26.90;78.10;;;;;;5117099;27;20201;-40
2022/08/15 08:07:45;;;;;;;2.78;2.50;;;26.90;78.40;;;;;;5113293;27;20741;-40
2022/08/15 08:10:30;;;;;;;8.32;3.40;;;26.90;78.80;;;;;;5113157;27;20208;-41
2022/08/15 08:13:35;;;;;;;5.13;3.38;;;27.00;78.40;;;;;;5124763;27;20213;-40
2022/08/15 08:16:14;;;;;;;12.02;3.85;;;27.00;78.90;;;;;;5108201;28;20243;-40
2022/08/15 08:19:08;;;;;;;5.45;3.13;;;27.00;78.60;;;;;;5119380;27;20684;-40
2022/08/15 08:22:01;;;;;;;4.07;2.90;;;27.00;78.50;;;;;;5109946;27;20706;-40
2022/08/15 08:24:59;;;;;;;3.65;2.90;;;27.00;78.40;;;;;;5105950;27;20680;-54
2022/08/15 08:27:49;;;;;;;3.75;2.75;;;27.00;78.60;;;;;;5120659;27;20217;-52
2022/08/15 08:30:33;;;;;;;6.18;3.25;;;27.00;78.50;;;;;;5108384;28;20684;-52
2022/08/15 08:33:28;;;;;;;5.80;2.83;;;27.10;78.60;;;;;;5110679;28;20220;-52
2022/08/15 08:36:21;;;;;;;6.78;3.10;;;27.10;79.00;;;;;;5109216;28;20523;-53
2022/08/15 08:39:18;;;;;;;3.03;2.70;;;27.20;79.50;;;;;;5128334;28;20948;-52
2022/08/15 08:41:56;;;;;;;4.35;3.00;;;27.20;78.70;;;;;;5126681;28;20233;-53
2022/08/15 08:44:43;;;;;;;4.15;2.72;;;27.30;79.10;;;;;;5118349;28;20568;-51
2022/08/15 08:47:50;;;;;;;5.32;2.90;;;27.30;79.10;;;;;;5118682;27;20267;-51
2022/08/15 08:50:50;;;;;;;5.68;3.00;;;27.40;79.30;;;;;;5097829;28;21003;-53
2022/08/15 08:53:32;;;;;;;4.78;3.05;;;27.40;79.10;;;;;;5117846;28;20202;-52
2022/08/15 08:56:17;;;;;;;4.82;2.83;;;27.40;78.70;;;;;;5116207;28;20316;-52
2022/08/15 08:59:20;;;;;;;4.97;3.08;;;27.40;79.30;;;;;;5122509;28;20267;-51
2022/08/15 09:02:22;;;;;;;4.63;2.80;;;27.50;79.30;;;;;;5107539;28;20308;-41
2022/08/15 09:05:22;;;;;;;5.57;2.75;;;27.50;79.20;;;;;;5112070;28;20217;-42
2022/08/15 09:07:54;;;;;;;6.60;2.80;;;27.60;79.40;;;;;;5115478;28;20324;-41
2022/08/15 09:10:32;;;;;;;4.35;3.13;;;27.70;79.30;;;;;;5106168;27;20227;-41
2022/08/15 09:15:59;;;;;;;3.72;3.13;;;27.80;79.30;;;;;;5117337;28;20217;-40
2022/08/15 09:18:34;;;;;;;5.40;3.28;;;27.90;80.00;;;;;;5123349;28;20218;-54
2022/08/15 09:21:17;;;;;;;4.50;3.08;;;27.90;79.50;;;;;;5119469;27;20190;-53
2022/08/15 09:23:46;;;;;;;5.43;3.38;;;28.00;80.10;;;;;;5126756;28;20578;-52
2022/08/15 09:26:46;;;;;;;3.88;2.90;;;28.00;79.50;;;;;;5116597;28;20189;-53
2022/08/15 09:29:32;;;;;;;5.70;3.35;;;28.10;79.20;;;;;;5124723;28;20209;-41
2022/08/15 09:32:17;;;;;;;3.47;3.00;;;28.10;79.40;;;;;;5108401;28;20202;-40
2022/08/15 09:35:23;;;;;;;3.47;3.15;;;28.20;79.50;;;;;;5122500;28;20245;-40
2022/08/15 09:38:26;;;;;;;3.40;3.10;;;28.30;80.10;;;;;;5122273;27;20190;-51
2022/08/15 09:41:08;;;;;;;5.95;3.28;;;28.30;79.50;;;;;;5123286;27;20202;-40
2022/08/15 09:44:12;;;;;;;4.40;3.63;;;28.30;79.60;;;;;;5127339;27;20718;-40
2022/08/15 09:47:46;;;;;;;6.05;3.25;;;28.40;80.00;;;;;;5096956;27;20205;-40
2022/08/15 09:50:21;;;;;;;4.25;3.17;;;28.50;79.90;;;;;;5124859;27;20304;-55
2022/08/15 09:54:04;;;;;;;5.50;3.10;;;28.50;79.70;;;;;;5105407;27;20711;-53
2022/08/15 09:57:19;;;;;;;6.00;3.45;;;28.60;79.70;;;;;;5013417;27;20201;-53
2022/08/15 09:59:56;;;;;;;5.03;3.10;;;28.60;80.10;;;;;;5114245;27;20289;-53
2022/08/15 10:02:27;;;;;;;4.90;3.38;;;28.70;79.80;;;;;;5093308;27;20214;-52
2022/08/15 10:05:13;;;;;;;6.72;3.67;;;28.70;79.80;;;;;;5117823;27;20265;-54
2022/08/15 10:07:51;;;;;;;5.60;3.35;;;28.80;80.10;;;;;;5116356;27;20197;-51
2022/08/15 10:10:43;;;;;;;4.57;3.35;;;28.80;79.70;;;;;;5129927;27;20212;-53
2022/08/15 10:13:26;;;;;;;5.88;3.60;;;28.80;79.70;;;;;;5123610;27;20206;-56
2022/08/15 10:15:57;;;;;;;3.85;3.05;;;28.90;79.60;;;;;;5100040;28;20226;-52
2022/08/15 10:18:27;;;;;;;3.72;3.40;;;28.90;79.60;;;;;;5118568;27;20247;-55
2022/08/15 10:21:19;;;;;;;4.05;3.40;;;29.00;79.70;;;;;;5124787;27;20247;-52
2022/08/15 10:23:50;;;;;;;4.30;3.15;;;29.00;79.60;;;;;;5120543;27;20270;-52
2022/08/15 10:26:31;;;;;;;5.35;3.30;;;29.10;79.90;;;;;;5126513;27;20208;-52
2022/08/15 10:29:17;;;;;;;5.65;3.47;;;29.10;79.70;;;;;;5099516;27;20559;-52
2022/08/15 10:31:56;;;;;;;5.68;3.47;;;29.20;79.90;;;;;;5128669;27;20202;-55
2022/08/15 10:35:03;;;;;;;5.65;3.50;;;29.30;80.00;;;;;;5121131;27;20217;-56
2022/08/15 10:37:36;;;;;;;3.45;2.83;;;29.30;80.00;;;;;;5095001;27;20521;-54
2022/08/15 10:40:36;;;;;;;4.22;3.03;;;29.40;79.70;;;;;;5128411;27;20229;-53
2022/08/15 10:43:17;;;;;;;4.50;3.17;;;29.40;79.80;;;;;;5109845;27;20198;-52
2022/08/15 10:45:48;;;;;;;3.45;2.95;;;29.50;79.80;;;;;;5109863;27;20233;-54
2022/08/15 10:48:22;;;;;;;4.28;3.20;;;29.50;79.80;;;;;;5126780;27;20263;-54
2022/08/15 10:51:48;;;;;;;4.30;3.30;;;29.50;79.70;;;;;;5119440;27;20212;-48
2022/08/15 10:54:33;;;;;;;5.13;3.50;;;29.60;79.80;;;;;;5116109;27;20593;-53
2022/08/15 10:57:07;;;;;;;5.10;3.42;;;29.70;79.80;;;;;;5109968;27;20209;-51
2022/08/15 10:59:45;;;;;;;5.45;3.30;;;29.70;79.70;;;;;;5093946;28;20287;-53
2022/08/15 11:02:34;;;;;;;6.03;3.30;;;29.80;79.70;;;;;;5089931;28;20251;-50
2022/08/15 11:05:10;;;;;;;5.03;3.38;;;29.90;79.70;;;;;;5084136;28;20218;-51
2022/08/15 11:07:50;;;;;;;6.10;3.33;;;30.00;79.40;;;;;;5081514;28;20207;-53
2022/08/15 11:10:27;;;;;;;4.53;3.30;;;30.00;79.30;;;;;;5083284;28;20211;-53
2022/08/15 11:12:59;;;;;;;7.65;3.80;;;30.00;79.20;;;;;;5088160;28;20287;-41
2022/08/15 11:15:54;;;;;;;3.88;3.50;;;30.00;79.10;;;;;;5085477;28;20206;-39
2022/08/15 11:18:38;;;;;;;4.18;3.20;;;30.00;79.00;;;;;;5093952;28;20206;-40
2022/08/15 11:21:32;;;;;;;3.70;3.08;;;30.10;79.10;;;;;;5082266;28;20745;-40
2022/08/15 11:24:23;;;;;;;4.47;3.60;;;30.10;78.80;;;;;;5084480;28;20286;-40
2022/08/15 11:27:17;;;;;;;5.22;3.10;;;30.20;79.00;;;;;;5080876;28;20573;-40
2022/08/15 11:29:57;;;;;;;4.25;3.47;;;30.30;79.20;;;;;;5070938;28;20211;-39
2022/08/15 11:32:31;;;;;;;3.92;3.58;;;30.40;79.00;;;;;;5086334;28;20236;-54
2022/08/15 11:35:21;;;;;;;4.38;3.05;;;30.40;78.80;;;;;;5084903;28;20317;-52
2022/08/15 11:37:58;;;;;;;6.22;3.65;;;30.50;78.90;;;;;;5087316;28;20260;-52
2022/08/15 11:40:32;;;;;;;4.63;3.30;;;30.60;79.60;;;;;;5079593;28;20237;-52
2022/08/15 11:43:02;;;;;;;5.43;3.22;;;30.60;78.90;;;;;;5100178;28;20227;-54
2022/08/15 11:45:41;;;;;;;5.38;3.33;;;30.60;78.80;;;;;;5082955;28;20218;-52
2022/08/15 11:48:33;;;;;;;3.97;3.10;;;30.70;78.80;;;;;;5086329;28;20257;-52
2022/08/15 11:51:15;;;;;;;4.28;3.65;;;30.70;78.60;;;;;;5080479;28;20296;-52
2022/08/15 11:54:11;;;;;;;9.20;3.78;;;30.70;78.50;;;;;;5085777;28;20548;-52
2022/08/15 11:56:44;;;;;;;7.10;3.60;;;30.80;78.60;;;;;;5081573;28;20238;-52
2022/08/15 11:59:23;;;;;;;12.00;4.30;;;30.70;78.80;;;;;;5110963;27;20237;-51
2022/08/15 12:02:07;;;;;;;14.18;4.32;;;30.70;79.90;;;;;;5109758;27;20709;-51
2022/08/15 12:04:38;;;;;;;8.55;3.88;;;30.70;80.30;;;;;;5121293;27;20705;-50
2022/08/15 12:07:30;;;;;;;5.65;3.95;;;30.60;80.80;;;;;;5120359;27;20193;-52
2022/08/15 12:10:03;;;;;;;6.00;3.72;;;30.50;81.20;;;;;;5110425;27;21555;-52
2022/08/15 12:12:51;;;;;;;4.93;3.72;;;30.50;81.00;;;;;;5107061;27;20687;-39
2022/08/15 12:15:45;;;;;;;5.88;3.60;;;30.40;80.60;;;;;;5117094;27;20310;-40
2022/08/15 12:18:22;;;;;;;4.53;3.65;;;30.30;80.70;;;;;;5107663;27;20202;-40
2022/08/15 12:21:13;;;;;;;5.05;3.70;;;30.20;80.40;;;;;;5107480;28;20795;-42
2022/08/15 12:23:51;;;;;;;4.70;3.50;;;30.10;80.30;;;;;;5108493;27;20206;-40
2022/08/15 12:26:26;;;;;;;4.47;3.72;;;30.00;80.40;;;;;;5109320;27;20201;-40
2022/08/15 12:29:14;;;;;;;6.55;3.40;;;29.90;80.10;;;;;;5120200;27;20720;-40
2022/08/15 12:31:48;;;;;;;3.97;3.47;;;29.80;80.40;;;;;;5125459;27;20216;-40
2022/08/15 12:34:27;;;;;;;6.07;3.38;;;29.70;80.50;;;;;;5116532;27;20768;-53
2022/08/15 12:37:02;;;;;;;4.25;3.50;;;29.70;80.70;;;;;;5112173;27;20210;-52
2022/08/15 12:39:42;;;;;;;7.60;4.25;;;29.70;81.00;;;;;;5099256;28;20577;-52
2022/08/15 12:42:13;;;;;;;6.72;3.88;;;29.60;81.00;;;;;;5108211;28;20781;-52
2022/08/15 12:45:14;;;;;;;6.82;3.45;;;29.60;81.10;;;;;;5110714;28;20572;-53
2022/08/15 12:47:44;;;;;;;4.63;3.58;;;29.50;81.00;;;;;;5127101;28;20212;-53
2022/08/15 12:50:32;;;;;;;4.50;3.40;;;29.50;81.00;;;;;;5107640;28;20309;-52
2022/08/15 12:53:01;;;;;;;5.55;3.58;;;29.50;81.10;;;;;;5107208;28;20568;-50
2022/08/15 12:55:40;;;;;;;5.68;3.60;;;29.40;81.20;;;;;;5118825;28;20327;-53
2022/08/15 12:58:09;;;;;;;4.32;3.72;;;29.40;81.40;;;;;;5088868;28;20723;-53
2022/08/15 13:00:47;;;;;;;4.10;3.47;;;29.40;81.50;;;;;;5106991;28;20209;-52
2022/08/15 13:03:33;;;;;;;3.95;3.20;;;29.30;81.20;;;;;;5123174;27;20205;-52
2022/08/15 13:06:44;;;;;;;3.60;3.25;;;29.30;81.60;;;;;;5110601;28;20245;-52
2022/08/15 13:09:23;;;;;;;4.30;3.47;;;29.20;81.60;;;;;;5107215;28;20287;-53
2022/08/15 13:11:56;;;;;;;4.57;3.30;;;29.20;81.30;;;;;;5145455;27;20204;-52
2022/08/15 13:14:23;;;;;;;6.80;3.78;;;29.20;81.40;;;;;;5134144;27;20520;-51
2022/08/15 13:16:54;;;;;;;4.20;3.80;;;29.10;81.40;;;;;;5124646;27;20347;-50
2022/08/15 13:25:23;;;;;;;4.13;3.60;;;29.00;81.80;;;;;;5117555;27;20620;-50
2022/08/15 13:27:53;;;;;;;4.25;3.85;;;29.00;81.80;;;;;;5113191;27;20297;-53
2022/08/15 13:30:21;;;;;;;5.70;3.90;;;29.00;82.00;;;;;;5120802;27;21065;-50
2022/08/15 13:33:03;;;;;;;6.22;4.00;;;29.00;82.10;;;;;;5130370;27;20205;-53
2022/08/15 13:35:35;;;;;;;7.25;3.95;;;29.00;82.30;;;;;;5124451;27;20249;-50
2022/08/15 13:38:25;;;;;;;4.97;4.13;;;29.00;82.40;;;;;;5114312;27;20642;-51
2022/08/15 13:40:58;;;;;;;3.78;3.38;;;29.00;82.60;;;;;;5113755;27;20291;-53
2022/08/15 13:43:31;;;;;;;4.35;3.75;;;28.90;82.50;;;;;;5122036;27;20732;-52
2022/08/15 13:46:25;;;;;;;5.45;4.25;;;28.90;82.70;;;;;;5127350;27;20293;-52
2022/08/15 13:49:03;;;;;;;6.03;4.35;;;28.90;82.70;;;;;;5114002;27;20701;-53
2022/08/15 13:51:56;;;;;;;5.53;4.07;;;28.90;83.30;;;;;;5122715;27;20205;-50
2022/08/15 13:54:44;;;;;;;5.70;4.18;;;28.90;83.30;;;;;;5125146;27;20225;-52
2022/08/15 13:57:19;;;;;;;4.72;4.20;;;28.90;83.20;;;;;;5104792;27;20238;-54
2022/08/15 13:59:52;;;;;;;5.18;3.83;;;29.00;83.70;;;;;;5078081;28;20305;-53
2022/08/15 14:02:25;;;;;;;5.28;4.20;;;29.00;83.80;;;;;;5086685;28;20199;-53
2022/08/15 14:05:05;;;;;;;4.53;4.00;;;29.00;83.90;;;;;;5080727;28;20218;-53
2022/08/15 14:07:34;;;;;;;4.30;3.90;;;29.00;83.40;;;;;;5075439;28;20203;-52
2022/08/15 14:10:25;;;;;;;4.95;4.43;;;29.00;83.40;;;;;;5075003;28;20688;-52
2022/08/15 14:13:13;;;;;;;6.78;4.07;;;29.00;83.60;;;;;;5084857;28;20223;-52
2022/08/15 14:15:52;;;;;;;5.50;3.70;;;29.00;83.40;;;;;;5070004;28;20227;-54